createdAt,value
2018-01-08T00:00:30.486Z,69.80
2018-01-08T00:01:31.617Z,69.80
2018-01-08T00:02:32.704Z,69.90
2018-01-08T00:03:33.872Z,69.90
2018-01-08T00:04:34.972Z,70.00
2018-01-08T00:05:36.105Z,70.00
2018-01-08T00:06:37.198Z,70.00
2018-01-08T00:07:38.333Z,69.80
2018-01-08T00:08:39.421Z,69.80
2018-01-08T00:09:40.515Z,69.80
2018-01-08T00:10:42.335Z,69.70
2018-01-08T00:11:43.436Z,69.70
2018-01-08T00:12:44.523Z,69.80
2018-01-08T00:13:45.660Z,69.80
2018-01-08T00:14:46.739Z,69.80
2018-01-08T00:15:47.824Z,69.80
2018-01-08T00:16:48.915Z,69.90
2018-01-08T00:17:50.059Z,70.20
2018-01-08T00:18:51.132Z,69.80
2018-01-08T00:19:52.255Z,70.00
2018-01-08T00:20:53.359Z,70.00
2018-01-08T00:21:54.447Z,70.10
2018-01-08T00:22:55.528Z,69.80
2018-01-08T00:23:56.607Z,69.90
2018-01-08T00:24:58.432Z,69.90
2018-01-08T00:25:59.531Z,69.80
2018-01-08T00:27:00.613Z,69.80
2018-01-08T00:28:02.459Z,69.80
2018-01-08T00:29:03.539Z,69.80
2018-01-08T00:30:04.645Z,69.80
2018-01-08T00:31:06.465Z,69.60
2018-01-08T00:32:07.543Z,69.60
2018-01-08T00:33:08.610Z,69.80
2018-01-08T00:34:09.688Z,69.60
2018-01-08T00:35:10.775Z,69.60
2018-01-08T00:36:11.852Z,69.60
2018-01-08T00:37:12.930Z,69.60
2018-01-08T00:38:14.016Z,69.30
2018-01-08T00:39:15.839Z,69.70
2018-01-08T00:40:16.919Z,70.40
2018-01-08T00:41:18.003Z,69.60
2018-01-08T00:42:19.075Z,69.60
2018-01-08T00:43:20.184Z,69.30
2018-01-08T00:44:21.259Z,69.70
2018-01-08T00:45:22.338Z,69.80
2018-01-08T00:46:23.411Z,69.60
2018-01-08T00:47:24.546Z,69.80
2018-01-08T00:48:25.634Z,69.80
2018-01-08T00:49:26.710Z,69.80
2018-01-08T00:50:27.788Z,70.60
2018-01-08T00:51:28.867Z,69.90
2018-01-08T00:52:29.943Z,70.00
2018-01-08T00:53:31.019Z,69.70
2018-01-08T00:54:32.834Z,70.00
2018-01-08T00:55:33.946Z,69.80
2018-01-08T00:56:35.031Z,69.90
2018-01-08T00:57:36.859Z,69.90
2018-01-08T00:58:37.930Z,69.80
2018-01-08T00:59:39.029Z,69.90
2018-01-08T01:00:40.159Z,70.00
2018-01-08T01:01:41.983Z,69.90
2018-01-08T01:02:43.068Z,69.70
2018-01-08T01:03:44.146Z,69.90
2018-01-08T01:04:45.227Z,69.80
2018-01-08T01:05:46.320Z,69.90
2018-01-08T01:06:47.407Z,69.90
2018-01-08T01:07:48.479Z,69.80
2018-01-08T01:08:49.562Z,69.80
2018-01-08T01:09:50.651Z,69.80
2018-01-08T01:10:51.763Z,69.80
2018-01-08T01:11:52.856Z,69.50
2018-01-08T01:12:53.943Z,69.80
2018-01-08T01:13:55.079Z,69.80
2018-01-08T01:14:56.198Z,69.90
2018-01-08T01:15:57.288Z,69.90
2018-01-08T01:16:58.406Z,69.90
2018-01-08T01:18:00.236Z,70.10
2018-01-08T01:19:01.331Z,70.00
2018-01-08T01:20:02.435Z,70.00
2018-01-08T01:21:03.531Z,70.00
2018-01-08T01:22:04.604Z,70.00
2018-01-08T01:23:05.687Z,70.00
2018-01-08T01:24:06.790Z,70.00
2018-01-08T01:25:07.864Z,69.80
2018-01-08T01:26:08.939Z,69.80
2018-01-08T01:27:10.003Z,69.80
2018-01-08T01:28:11.099Z,69.90
2018-01-08T01:29:12.189Z,70.20
2018-01-08T01:30:13.263Z,70.00
2018-01-08T01:31:15.099Z,70.10
2018-01-08T01:32:16.928Z,69.90
2018-01-08T01:33:18.015Z,69.80
2018-01-08T01:34:19.123Z,70.00
2018-01-08T01:35:20.232Z,70.00
2018-01-08T01:36:21.318Z,70.40
2018-01-08T01:37:22.409Z,70.50
2018-01-08T01:38:23.491Z,70.70
2018-01-08T01:39:24.571Z,70.30
2018-01-08T01:40:26.402Z,70.10
2018-01-08T01:41:27.527Z,70.10
2018-01-08T01:42:28.636Z,70.70
2018-01-08T01:43:29.756Z,70.00
2018-01-08T01:44:30.841Z,70.00
2018-01-08T01:45:32.675Z,69.60
2018-01-08T01:46:33.787Z,69.60
2018-01-08T01:47:34.878Z,69.80
2018-01-08T01:48:35.967Z,70.20
2018-01-08T01:49:37.063Z,70.40
2018-01-08T01:50:38.147Z,70.20
2018-01-08T01:51:39.227Z,70.10
2018-01-08T01:52:40.312Z,70.20
2018-01-08T01:53:41.404Z,70.10
2018-01-08T01:54:42.488Z,70.20
2018-01-08T01:55:43.554Z,70.20
2018-01-08T01:56:44.635Z,70.10
2018-01-08T01:57:45.720Z,70.30
2018-01-08T01:58:46.799Z,69.90
2018-01-08T01:59:47.875Z,69.60
2018-01-08T02:00:48.963Z,70.00
2018-01-08T02:01:50.066Z,70.10
2018-01-08T02:02:51.152Z,70.20
2018-01-08T02:03:52.972Z,70.30
2018-01-08T02:04:54.072Z,70.20
2018-01-08T02:05:55.148Z,70.10
2018-01-08T02:06:56.239Z,69.90
2018-01-08T02:07:57.308Z,69.90
2018-01-08T02:08:58.396Z,69.80
2018-01-08T02:09:59.494Z,69.90
2018-01-08T02:11:00.600Z,69.60
2018-01-08T02:12:01.710Z,69.60
2018-01-08T02:13:02.775Z,69.60
2018-01-08T02:14:03.855Z,69.70
2018-01-08T02:15:04.923Z,69.60
2018-01-08T02:16:06.008Z,69.60
2018-01-08T02:17:07.096Z,69.70
2018-01-08T02:18:08.166Z,69.70
2018-01-08T02:19:09.986Z,69.70
2018-01-08T02:20:11.064Z,69.60
2018-01-08T02:21:12.148Z,69.60
2018-01-08T02:22:13.240Z,69.70
2018-01-08T02:23:15.059Z,69.50
2018-01-08T02:24:16.871Z,69.80
2018-01-08T02:25:17.939Z,69.70
2018-01-08T02:26:19.762Z,69.90
2018-01-08T02:27:20.868Z,69.90
2018-01-08T02:28:21.946Z,69.80
2018-01-08T02:29:23.771Z,69.90
2018-01-08T02:30:24.850Z,69.60
2018-01-08T02:31:25.940Z,69.80
2018-01-08T02:32:27.023Z,69.90
2018-01-08T02:33:28.099Z,69.90
2018-01-08T02:34:29.176Z,69.90
2018-01-08T02:35:30.244Z,69.90
2018-01-08T02:36:31.330Z,70.00
2018-01-08T02:37:33.150Z,69.90
2018-01-08T02:38:34.236Z,69.80
2018-01-08T02:39:35.316Z,69.70
2018-01-08T02:40:36.391Z,70.20
2018-01-08T02:41:37.475Z,70.00
2018-01-08T02:42:38.604Z,70.10
2018-01-08T02:43:39.641Z,70.10
2018-01-08T02:44:40.726Z,70.00
2018-01-08T02:45:41.839Z,70.50
2018-01-08T02:46:43.672Z,70.40
2018-01-08T02:47:44.787Z,70.40
2018-01-08T02:48:45.934Z,70.10
2018-01-08T02:49:47.007Z,70.10
2018-01-08T02:50:48.079Z,69.80
2018-01-08T02:51:49.155Z,70.10
2018-01-08T02:52:50.984Z,70.30
2018-01-08T02:53:52.819Z,70.40
2018-01-08T02:54:53.899Z,70.40
2018-01-08T02:55:54.985Z,70.70
2018-01-08T02:56:56.060Z,70.60
2018-01-08T02:57:57.139Z,70.30
2018-01-08T02:58:58.219Z,70.40
2018-01-08T02:59:59.318Z,70.20
2018-01-08T03:01:00.425Z,70.00
2018-01-08T03:02:01.504Z,70.00
2018-01-08T03:03:03.330Z,70.20
2018-01-08T03:04:04.422Z,70.10
2018-01-08T03:05:05.490Z,70.50
2018-01-08T03:06:06.575Z,70.60
2018-01-08T03:07:07.651Z,70.50
2018-01-08T03:08:08.766Z,70.60
2018-01-08T03:09:09.843Z,70.70
2018-01-08T03:10:11.651Z,70.90
2018-01-08T03:11:12.725Z,70.80
2018-01-08T03:12:13.814Z,70.60
2018-01-08T03:13:14.908Z,70.50
2018-01-08T03:14:15.990Z,70.40
2018-01-08T03:15:17.068Z,70.30
2018-01-08T03:16:18.151Z,70.30
2018-01-08T03:17:19.235Z,70.10
2018-01-08T03:18:21.051Z,69.80
2018-01-08T03:19:22.134Z,69.80
2018-01-08T03:20:23.214Z,69.70
2018-01-08T03:21:24.308Z,69.50
2018-01-08T03:22:25.371Z,69.60
2018-01-08T03:23:26.448Z,69.80
2018-01-08T03:24:27.535Z,69.80
2018-01-08T03:25:28.615Z,69.60
2018-01-08T03:26:29.702Z,69.80
2018-01-08T03:27:30.790Z,69.60
2018-01-08T03:28:31.866Z,69.60
2018-01-08T03:29:32.954Z,69.40
2018-01-08T03:30:34.074Z,69.80
2018-01-08T03:31:35.170Z,69.90
2018-01-08T03:32:36.243Z,69.80
2018-01-08T03:33:37.330Z,69.60
2018-01-08T03:34:38.407Z,69.70
2018-01-08T03:35:39.499Z,69.70
2018-01-08T03:36:40.588Z,70.20
2018-01-08T03:37:42.402Z,69.90
2018-01-08T03:38:44.239Z,69.90
2018-01-08T03:39:45.307Z,69.80
2018-01-08T03:40:46.374Z,69.80
2018-01-08T03:41:47.459Z,70.00
2018-01-08T03:42:49.284Z,70.30
2018-01-08T03:43:51.139Z,70.10
2018-01-08T03:44:52.206Z,70.10
2018-01-08T03:45:53.272Z,70.80
2018-01-08T03:46:54.339Z,69.70
2018-01-08T03:47:55.431Z,69.80
2018-01-08T03:48:56.515Z,69.70
2018-01-08T03:49:57.616Z,70.00
2018-01-08T03:50:58.704Z,70.30
2018-01-08T03:51:59.784Z,70.30
2018-01-08T03:53:00.856Z,70.20
2018-01-08T03:54:01.943Z,69.80
2018-01-08T03:55:03.023Z,69.30
2018-01-08T03:56:04.107Z,69.50
2018-01-08T03:57:05.184Z,69.70
2018-01-08T03:58:06.268Z,69.70
2018-01-08T03:59:07.351Z,69.70
2018-01-08T04:00:08.420Z,69.50
2018-01-08T04:01:09.508Z,69.60
2018-01-08T04:02:11.080Z,69.70
2018-01-08T04:03:12.175Z,69.50
2018-01-08T04:04:13.255Z,69.50
2018-01-08T04:05:14.347Z,69.40
2018-01-08T04:06:15.427Z,69.40
2018-01-08T04:07:16.496Z,69.30
2018-01-08T04:08:17.595Z,69.10
2018-01-08T04:09:18.675Z,69.10
2018-01-08T04:10:20.503Z,69.30
2018-01-08T04:11:22.336Z,69.00
2018-01-08T04:12:23.419Z,69.00
2018-01-08T04:13:24.499Z,68.90
2018-01-08T04:14:25.572Z,69.20
2018-01-08T04:15:26.642Z,69.20
2018-01-08T04:16:27.702Z,69.10
2018-01-08T04:17:28.763Z,69.20
2018-01-08T04:18:30.579Z,69.10
2018-01-08T04:19:31.654Z,69.00
2018-01-08T04:20:32.724Z,69.10
2018-01-08T04:21:33.807Z,69.40
2018-01-08T04:22:34.907Z,69.20
2018-01-08T04:23:35.972Z,69.00
2018-01-08T04:24:37.798Z,69.20
2018-01-08T04:25:38.867Z,69.20
2018-01-08T04:26:39.949Z,69.20
2018-01-08T04:27:41.036Z,69.20
2018-01-08T04:28:42.127Z,69.50
2018-01-08T04:29:43.215Z,69.70
2018-01-08T04:30:44.316Z,70.00
2018-01-08T04:31:45.395Z,69.50
2018-01-08T04:32:46.481Z,69.30
2018-01-08T04:33:47.559Z,69.20
2018-01-08T04:34:48.667Z,69.30
2018-01-08T04:35:49.742Z,69.10
2018-01-08T04:36:50.822Z,68.70
2018-01-08T04:37:51.899Z,69.10
2018-01-08T04:38:52.979Z,69.10
2018-01-08T04:39:54.083Z,69.20
2018-01-08T04:40:55.160Z,69.30
2018-01-08T04:41:56.234Z,69.30
2018-01-08T04:42:57.318Z,69.30
2018-01-08T04:43:58.398Z,69.60
2018-01-08T04:44:59.494Z,69.70
2018-01-08T04:46:00.586Z,69.70
2018-01-08T04:47:01.693Z,69.50
2018-01-08T04:48:02.780Z,69.50
2018-01-08T04:49:03.867Z,69.40
2018-01-08T04:50:04.951Z,69.60
2018-01-08T04:51:06.044Z,70.00
2018-01-08T04:52:07.117Z,70.10
2018-01-08T04:53:08.195Z,69.90
2018-01-08T04:54:09.283Z,69.90
2018-01-08T04:55:10.363Z,70.00
2018-01-08T04:56:11.432Z,70.00
2018-01-08T04:57:12.531Z,69.90
2018-01-08T04:58:13.603Z,69.60
2018-01-08T04:59:14.679Z,69.70
2018-01-08T05:00:15.759Z,70.00
2018-01-08T05:01:16.836Z,69.40
2018-01-08T05:02:17.911Z,70.00
2018-01-08T05:03:19.007Z,70.00
2018-01-08T05:04:20.072Z,70.50
2018-01-08T05:05:21.167Z,71.10
2018-01-08T05:06:22.258Z,70.20
2018-01-08T05:07:23.330Z,70.80
2018-01-08T05:08:24.399Z,70.40
2018-01-08T05:09:25.483Z,70.60
2018-01-08T05:10:26.568Z,70.00
2018-01-08T05:11:28.382Z,70.30
2018-01-08T05:12:29.460Z,70.30
2018-01-08T05:13:31.270Z,70.10
2018-01-08T05:14:32.347Z,70.10
2018-01-08T05:15:33.443Z,69.90
2018-01-08T05:16:34.531Z,69.80
2018-01-08T05:17:35.614Z,69.80
2018-01-08T05:18:36.710Z,69.60
2018-01-08T05:19:37.784Z,70.20
2018-01-08T05:20:38.891Z,69.40
2018-01-08T05:21:40.027Z,69.80
2018-01-08T05:22:41.060Z,69.60
2018-01-08T05:23:42.178Z,70.10
2018-01-08T05:24:43.252Z,69.90
2018-01-08T05:25:44.322Z,69.80
2018-01-08T05:26:45.455Z,70.20
2018-01-08T05:27:46.547Z,69.30
2018-01-08T05:28:47.615Z,69.30
2018-01-08T05:29:48.699Z,69.80
2018-01-08T05:30:49.783Z,69.80
2018-01-08T05:31:50.885Z,69.90
2018-01-08T05:32:52.747Z,69.80
2018-01-08T05:33:53.818Z,69.80
2018-01-08T05:34:54.896Z,69.60
2018-01-08T05:35:56.715Z,69.50
2018-01-08T05:36:57.798Z,69.50
2018-01-08T05:37:58.887Z,69.90
2018-01-08T05:38:59.951Z,69.50
2018-01-08T05:40:01.775Z,69.50
2018-01-08T05:41:02.895Z,69.50
2018-01-08T05:42:03.959Z,69.50
2018-01-08T05:43:05.812Z,70.00
2018-01-08T05:44:07.636Z,70.10
2018-01-08T05:45:08.727Z,70.10
2018-01-08T05:46:09.847Z,69.50
2018-01-08T05:47:10.922Z,69.50
2018-01-08T05:48:12.003Z,70.60
2018-01-08T05:49:13.091Z,69.90
2018-01-08T05:50:14.179Z,70.30
2018-01-08T05:51:15.246Z,69.50
2018-01-08T05:52:17.160Z,69.20
2018-01-08T05:53:18.270Z,69.10
2018-01-08T05:54:19.343Z,69.20
2018-01-08T05:55:20.435Z,69.20
2018-01-08T05:56:21.528Z,69.30
2018-01-08T05:57:22.612Z,69.30
2018-01-08T05:58:24.441Z,69.30
2018-01-08T05:59:25.515Z,69.20
2018-01-08T06:00:26.583Z,69.30
2018-01-08T06:01:27.663Z,69.10
2018-01-08T06:02:28.736Z,69.10
2018-01-08T06:03:29.811Z,69.30
2018-01-08T06:04:30.870Z,69.20
2018-01-08T06:05:31.952Z,69.30
2018-01-08T06:06:33.787Z,69.20
2018-01-08T06:07:34.852Z,69.20
2018-01-08T06:08:35.906Z,69.30
2018-01-08T06:09:36.992Z,69.30
2018-01-08T06:10:38.072Z,69.20
2018-01-08T06:11:39.158Z,69.40
2018-01-08T06:12:40.220Z,69.50
2018-01-08T06:13:42.071Z,70.30
2018-01-08T06:14:43.871Z,69.70
2018-01-08T06:15:44.941Z,69.70
2018-01-08T06:16:46.025Z,69.50
2018-01-08T06:17:47.126Z,69.50
2018-01-08T06:18:48.939Z,69.60
2018-01-08T06:19:50.008Z,69.50
2018-01-08T06:20:51.808Z,69.50
2018-01-08T06:21:52.903Z,69.50
2018-01-08T06:22:54.016Z,69.30
2018-01-08T06:23:55.099Z,69.20
2018-01-08T06:24:56.235Z,69.00
2018-01-08T06:25:57.326Z,69.10
2018-01-08T06:26:58.462Z,69.10
2018-01-08T06:27:59.608Z,69.10
2018-01-08T06:29:00.716Z,68.90
2018-01-08T06:30:01.887Z,68.70
2018-01-08T06:31:03.713Z,68.80
2018-01-08T06:32:04.822Z,68.70
2018-01-08T06:33:06.659Z,68.80
2018-01-08T06:34:07.730Z,68.70
2018-01-08T06:35:08.834Z,68.70
2018-01-08T06:36:10.687Z,70.00
2018-01-08T06:37:11.807Z,69.20
2018-01-08T06:38:13.008Z,69.30
2018-01-08T06:39:14.144Z,69.10
2018-01-08T06:40:15.275Z,68.70
2018-01-08T06:41:16.379Z,68.70
2018-01-08T06:42:17.503Z,68.80
2018-01-08T06:43:18.598Z,68.70
2018-01-08T06:44:19.703Z,68.60
2018-01-08T06:45:20.821Z,68.40
2018-01-08T06:46:22.695Z,68.70
2018-01-08T06:47:23.780Z,68.90
2018-01-08T06:48:24.852Z,68.90
2018-01-08T06:49:25.942Z,69.00
2018-01-08T06:50:27.077Z,69.10
2018-01-08T06:51:28.903Z,68.90
2018-01-08T06:52:30.040Z,68.90
2018-01-08T06:53:31.875Z,69.10
2018-01-08T06:54:32.939Z,69.00
2018-01-08T06:55:34.015Z,68.80
2018-01-08T06:56:35.107Z,68.90
2018-01-08T06:57:36.180Z,68.90
2018-01-08T06:58:37.300Z,68.90
2018-01-08T06:59:38.399Z,69.20
2018-01-08T07:00:39.471Z,69.10
2018-01-08T07:01:40.566Z,68.90
2018-01-08T07:02:41.653Z,68.90
2018-01-08T07:03:42.775Z,68.70
2018-01-08T07:04:43.868Z,68.70
2018-01-08T07:05:45.809Z,68.70
2018-01-08T07:06:46.896Z,68.70
2018-01-08T07:07:47.983Z,68.70
2018-01-08T07:08:49.072Z,68.30
2018-01-08T07:09:50.243Z,68.70
2018-01-08T07:10:51.296Z,68.60
2018-01-08T07:11:52.487Z,68.50
2018-01-08T07:12:53.575Z,68.70
2018-01-08T07:13:54.677Z,68.80
2018-01-08T07:14:56.535Z,68.80
2018-01-08T07:15:57.632Z,68.80
2018-01-08T07:16:58.739Z,68.70
2018-01-08T07:17:59.845Z,68.60
2018-01-08T07:19:00.950Z,69.10
2018-01-08T07:20:02.779Z,68.90
2018-01-08T07:21:03.930Z,68.80
2018-01-08T07:22:05.039Z,69.10
2018-01-08T07:23:06.123Z,68.90
2018-01-08T07:24:07.198Z,69.00
2018-01-08T07:25:08.271Z,69.00
2018-01-08T07:26:10.105Z,69.30
2018-01-08T07:27:11.203Z,69.20
2018-01-08T07:28:12.296Z,69.40
2018-01-08T07:29:13.415Z,69.20
2018-01-08T07:30:14.512Z,69.40
2018-01-08T07:31:15.584Z,69.50
2018-01-08T07:32:17.447Z,69.10
2018-01-08T07:33:18.557Z,69.10
2018-01-08T07:34:19.619Z,68.90
2018-01-08T07:35:20.691Z,68.80
2018-01-08T07:36:21.762Z,68.90
2018-01-08T07:37:23.571Z,69.20
2018-01-08T07:38:24.643Z,69.20
2018-01-08T07:39:26.467Z,68.90
2018-01-08T07:40:27.586Z,68.90
2018-01-08T07:41:28.679Z,68.90
2018-01-08T07:42:29.787Z,68.70
2018-01-08T07:43:31.615Z,69.00
2018-01-08T07:44:32.699Z,68.90
2018-01-08T07:45:33.804Z,69.00
2018-01-08T07:46:35.659Z,68.50
2018-01-08T07:47:36.774Z,68.40
2018-01-08T07:48:37.875Z,68.60
2018-01-08T07:49:38.951Z,68.60
2018-01-08T07:50:40.775Z,68.90
2018-01-08T07:51:41.876Z,68.80
2018-01-08T07:52:42.956Z,68.80
2018-01-08T07:53:44.811Z,69.10
2018-01-08T07:54:45.911Z,69.10
2018-01-08T07:55:47.001Z,69.10
2018-01-08T07:56:48.114Z,68.90
2018-01-08T07:57:49.964Z,68.80
2018-01-08T07:58:51.079Z,68.80
2018-01-08T07:59:52.175Z,68.80
2018-01-08T08:00:53.287Z,68.80
2018-01-08T08:01:54.398Z,68.70
2018-01-08T08:02:56.241Z,68.80
2018-01-08T08:03:57.348Z,68.80
2018-01-08T08:04:58.450Z,69.00
2018-01-08T08:05:59.562Z,69.50
2018-01-08T08:07:00.655Z,68.70
2018-01-08T08:08:01.775Z,68.90
2018-01-08T08:09:02.919Z,68.90
2018-01-08T08:10:03.996Z,68.80
2018-01-08T08:11:05.096Z,68.60
2018-01-08T08:12:06.196Z,68.70
2018-01-08T08:13:07.340Z,68.60
2018-01-08T08:14:08.408Z,68.40
2018-01-08T08:15:09.507Z,68.50
2018-01-08T08:16:10.619Z,68.40
2018-01-08T08:17:11.820Z,68.60
2018-01-08T08:18:12.919Z,68.90
2018-01-08T08:19:14.005Z,68.70
2018-01-08T08:20:15.103Z,68.20
2018-01-08T08:21:16.927Z,68.70
2018-01-08T08:22:18.008Z,68.70
2018-01-08T08:23:19.091Z,68.40
2018-01-08T08:24:20.172Z,68.50
2018-01-08T08:25:21.996Z,68.40
2018-01-08T08:26:23.075Z,68.40
2018-01-08T08:27:24.946Z,68.30
2018-01-08T08:28:26.036Z,68.30
2018-01-08T08:29:27.119Z,68.20
2018-01-08T08:30:28.196Z,68.30
2018-01-08T08:31:29.279Z,68.60
2018-01-08T08:32:31.140Z,68.70
2018-01-08T08:33:32.256Z,68.20
2018-01-08T08:34:33.339Z,68.50
2018-01-08T08:35:34.452Z,68.70
2018-01-08T08:36:35.531Z,68.50
2018-01-08T08:37:36.612Z,68.30
2018-01-08T08:38:37.761Z,68.20
2018-01-08T08:39:39.587Z,68.00
2018-01-08T08:40:40.671Z,68.00
2018-01-08T08:41:41.751Z,68.10
2018-01-08T08:42:42.835Z,67.60
2018-01-08T08:43:43.936Z,67.70
2018-01-08T08:44:45.775Z,67.70
2018-01-08T08:45:46.879Z,67.60
2018-01-08T08:46:47.951Z,67.70
2018-01-08T08:47:49.775Z,67.80
2018-01-08T08:48:50.852Z,67.80
2018-01-08T08:49:52.660Z,68.00
2018-01-08T08:50:53.755Z,68.00
2018-01-08T08:51:54.859Z,68.00
2018-01-08T08:52:55.939Z,68.00
2018-01-08T08:53:57.040Z,68.20
2018-01-08T08:54:58.121Z,68.00
2018-01-08T08:55:59.207Z,68.20
2018-01-08T08:57:00.284Z,67.60
2018-01-08T08:58:01.369Z,67.60
2018-01-08T08:59:02.473Z,67.70
2018-01-08T09:00:03.567Z,68.00
2018-01-08T09:01:04.652Z,67.50
2018-01-08T09:02:05.853Z,67.20
2018-01-08T09:03:06.996Z,67.40
2018-01-08T09:04:08.887Z,67.60
2018-01-08T09:05:09.973Z,67.60
2018-01-08T09:06:11.052Z,67.60
2018-01-08T09:07:12.127Z,67.60
2018-01-08T09:08:13.226Z,67.60
2018-01-08T09:09:14.388Z,67.60
2018-01-08T09:10:15.421Z,67.60
2018-01-08T09:11:16.543Z,67.60
2018-01-08T09:12:17.635Z,68.40
2018-01-08T09:13:18.733Z,67.60
2018-01-08T09:14:19.847Z,67.70
2018-01-08T09:15:20.935Z,67.70
2018-01-08T09:16:22.075Z,67.10
2018-01-08T09:17:23.173Z,67.40
2018-01-08T09:18:24.250Z,67.70
2018-01-08T09:19:25.368Z,68.50
2018-01-08T09:20:26.684Z,67.70
2018-01-08T09:21:28.634Z,67.70
2018-01-08T09:22:29.802Z,67.70
2018-01-08T09:23:30.894Z,67.70
2018-01-08T09:24:31.975Z,67.70
2018-01-08T09:25:33.063Z,67.70
2018-01-08T09:26:34.164Z,67.20
2018-01-08T09:27:35.264Z,67.60
2018-01-08T09:28:36.329Z,67.60
2018-01-08T09:29:37.419Z,67.40
2018-01-08T09:30:38.515Z,68.30
2018-01-08T09:31:39.618Z,67.50
2018-01-08T09:32:40.704Z,67.50
2018-01-08T09:33:41.779Z,67.40
2018-01-08T09:34:42.875Z,67.60
2018-01-08T09:35:43.932Z,67.60
2018-01-08T09:36:45.011Z,67.60
2018-01-08T09:37:46.079Z,67.60
2018-01-08T09:38:47.159Z,67.80
2018-01-08T09:39:48.247Z,67.60
2018-01-08T09:40:49.316Z,67.60
2018-01-08T09:41:50.394Z,67.60
2018-01-08T09:42:52.211Z,67.60
2018-01-08T09:43:53.355Z,67.60
2018-01-08T09:44:54.431Z,67.60
2018-01-08T09:45:55.537Z,67.70
2018-01-08T09:46:57.471Z,67.60
2018-01-08T09:47:58.641Z,67.70
2018-01-08T09:48:59.759Z,67.70
2018-01-08T09:50:01.637Z,67.70
2018-01-08T09:51:02.804Z,67.70
2018-01-08T09:52:03.941Z,67.70
2018-01-08T09:53:05.843Z,67.40
2018-01-08T09:54:06.998Z,67.40
2018-01-08T09:55:08.048Z,67.10
2018-01-08T09:56:09.191Z,67.10
2018-01-08T09:57:11.410Z,67.30
2018-01-08T09:58:13.821Z,67.40
2018-01-08T09:59:15.422Z,67.10
2018-01-08T10:00:16.873Z,67.50
2018-01-08T10:01:18.240Z,67.00
2018-01-08T10:02:20.000Z,68.10
2018-01-08T10:03:33.495Z,67.20
2018-01-08T10:04:53.179Z,67.50
2018-01-08T10:06:12.613Z,67.10
2018-01-08T10:07:32.091Z,67.20
2018-01-08T10:08:53.377Z,67.30
2018-01-08T10:10:12.777Z,67.00
2018-01-08T10:11:32.412Z,67.40
2018-01-08T10:12:52.150Z,67.60
2018-01-08T10:14:11.660Z,67.50
2018-01-08T10:15:31.086Z,67.30
2018-01-08T10:16:51.607Z,67.10
2018-01-08T10:18:11.231Z,67.10
2018-01-08T10:19:31.368Z,67.50
2018-01-08T10:20:32.433Z,67.50
2018-01-08T10:21:33.662Z,67.50
2018-01-08T10:22:34.898Z,67.50
2018-01-08T10:23:38.803Z,67.50
2018-01-08T10:24:42.843Z,67.40
2018-01-08T10:26:01.053Z,67.40
2018-01-08T10:27:03.883Z,67.40
2018-01-08T10:28:05.925Z,67.40
2018-01-08T10:29:19.908Z,67.50
2018-01-08T10:30:33.431Z,67.50
2018-01-08T10:31:47.807Z,67.50
2018-01-08T10:32:50.592Z,67.50
2018-01-08T10:33:52.188Z,67.40
2018-01-08T10:34:54.855Z,67.50
2018-01-08T10:36:01.912Z,67.60
2018-01-08T10:37:03.300Z,67.50
2018-01-08T10:38:08.904Z,67.50
2018-01-08T10:39:11.859Z,67.60
2018-01-08T10:40:13.070Z,67.50
2018-01-08T10:41:14.148Z,67.50
2018-01-08T10:42:21.284Z,67.50
2018-01-08T10:43:28.503Z,67.30
2018-01-08T10:44:36.620Z,67.50
2018-01-08T10:45:43.765Z,67.50
2018-01-08T10:46:50.911Z,67.50
2018-01-08T10:47:58.023Z,67.50
2018-01-08T10:49:05.947Z,67.50
2018-01-08T10:50:13.285Z,67.40
2018-01-08T10:51:20.443Z,67.50
2018-01-08T10:52:21.606Z,67.50
2018-01-08T10:53:40.877Z,67.50
2018-01-08T10:54:43.735Z,67.50
2018-01-08T10:55:45.574Z,67.50
2018-01-08T10:56:47.407Z,67.50
2018-01-08T10:57:49.252Z,67.50
2018-01-08T10:58:50.360Z,67.50
2018-01-08T10:59:51.447Z,67.50
2018-01-08T11:00:58.740Z,67.20
2018-01-08T11:02:06.027Z,67.40
2018-01-08T11:03:13.111Z,67.50
2018-01-08T11:04:14.208Z,67.60
2018-01-08T11:05:16.062Z,67.30
2018-01-08T11:06:17.184Z,67.20
2018-01-08T11:07:18.461Z,67.50
2018-01-08T11:08:19.558Z,67.30
2018-01-08T11:09:21.390Z,67.20
2018-01-08T11:10:23.227Z,67.30
2018-01-08T11:11:30.938Z,67.20
2018-01-08T11:12:36.089Z,67.30
2018-01-08T11:13:39.490Z,67.20
2018-01-08T11:14:40.863Z,67.20
2018-01-08T11:15:43.083Z,67.30
2018-01-08T11:16:44.251Z,67.10
2018-01-08T11:17:45.391Z,67.10
2018-01-08T11:18:46.495Z,67.00
2018-01-08T11:19:47.586Z,67.10
2018-01-08T11:20:49.452Z,66.80
2018-01-08T11:21:51.315Z,66.60
2018-01-08T11:22:52.487Z,66.60
2018-01-08T11:23:53.667Z,66.90
2018-01-08T11:24:56.653Z,66.90
2018-01-08T11:25:57.800Z,66.70
2018-01-08T11:26:58.911Z,66.90
2018-01-08T11:28:04.333Z,66.70
2018-01-08T11:29:05.447Z,67.20
2018-01-08T11:30:06.539Z,67.20
2018-01-08T11:31:07.636Z,66.90
2018-01-08T11:32:10.185Z,66.60
2018-01-08T11:33:11.911Z,66.60
2018-01-08T11:34:13.008Z,66.60
2018-01-08T11:35:14.102Z,66.40
2018-01-08T11:36:15.735Z,66.30
2018-01-08T11:37:16.865Z,66.60
2018-01-08T11:38:18.424Z,66.70
2018-01-08T11:39:23.604Z,67.00
2018-01-08T11:40:24.704Z,66.60
2018-01-08T11:41:25.816Z,66.20
2018-01-08T11:42:26.920Z,66.40
2018-01-08T11:43:28.011Z,66.40
2018-01-08T11:44:29.093Z,66.30
2018-01-08T11:45:31.311Z,66.70
2018-01-08T11:46:32.410Z,66.10
2018-01-08T11:47:33.510Z,66.40
2018-01-08T11:48:34.603Z,66.40
2018-01-08T11:49:38.435Z,66.20
2018-01-08T11:50:40.583Z,66.40
2018-01-08T11:51:41.685Z,66.40
2018-01-08T11:52:49.324Z,66.10
2018-01-08T11:53:53.883Z,66.10
2018-01-08T11:54:54.996Z,66.20
2018-01-08T11:56:01.481Z,66.90
2018-01-08T11:57:05.602Z,66.40
2018-01-08T11:58:07.702Z,66.20
2018-01-08T11:59:13.441Z,66.40
2018-01-08T12:00:18.145Z,66.20
2018-01-08T12:01:25.797Z,66.10
2018-01-08T12:02:33.095Z,65.80
2018-01-08T12:03:35.508Z,66.20
2018-01-08T12:04:42.088Z,66.10
2018-01-08T12:06:00.499Z,66.20
2018-01-08T12:07:02.385Z,65.90
2018-01-08T12:08:04.986Z,66.10
2018-01-08T12:09:08.745Z,66.20
2018-01-08T12:10:19.097Z,66.00
2018-01-08T12:11:25.330Z,66.70
2018-01-08T12:12:27.244Z,65.80
2018-01-08T12:13:30.353Z,65.70
2018-01-08T12:15:57.520Z,66.10
2018-01-08T12:17:04.257Z,65.90
2018-01-08T12:18:12.999Z,66.10
2018-01-08T12:19:17.499Z,66.20
2018-01-08T12:20:20.358Z,66.10
2018-01-08T12:21:21.448Z,66.00
2018-01-08T12:22:22.543Z,65.80
2018-01-08T12:24:32.263Z,66.20
2018-01-08T12:25:33.343Z,66.20
2018-01-08T12:26:34.477Z,66.20
2018-01-08T12:27:35.620Z,66.10
2018-01-08T12:28:40.447Z,66.40
2018-01-08T12:31:03.910Z,66.00
2018-01-08T12:32:07.149Z,65.90
2018-01-08T12:33:15.267Z,66.20
2018-01-08T12:34:16.879Z,66.20
2018-01-08T12:35:18.392Z,66.20
2018-01-08T12:36:19.577Z,66.00
2018-01-08T12:37:22.668Z,66.20
2018-01-08T12:38:23.816Z,66.20
2018-01-08T12:39:24.919Z,65.80
2018-01-08T12:40:26.723Z,66.20
2018-01-08T12:41:27.840Z,66.20
2018-01-08T12:42:28.955Z,66.30
2018-01-08T12:43:30.102Z,66.30
2018-01-08T12:44:31.887Z,66.20
2018-01-08T12:45:32.967Z,66.20
2018-01-08T12:46:34.040Z,65.80
2018-01-08T12:47:35.135Z,66.10
2018-01-08T12:48:36.218Z,65.80
2018-01-08T12:49:37.327Z,66.00
2018-01-08T12:50:38.398Z,65.50
2018-01-08T12:51:40.219Z,65.70
2018-01-08T12:52:44.107Z,65.70
2018-01-08T12:53:45.184Z,65.90
2018-01-08T12:54:48.122Z,66.10
2018-01-08T12:55:49.190Z,66.00
2018-01-08T12:56:51.002Z,65.70
2018-01-08T12:57:52.088Z,65.70
2018-01-08T12:58:53.171Z,66.00
2018-01-08T12:59:55.757Z,65.90
2018-01-08T13:00:57.002Z,65.80
2018-01-08T13:01:59.235Z,66.20
2018-01-08T13:03:00.327Z,65.80
2018-01-08T13:04:02.808Z,65.60
2018-01-08T13:05:03.963Z,65.70
2018-01-08T13:06:05.023Z,65.90
2018-01-08T13:07:06.843Z,66.50
2018-01-08T13:08:21.544Z,65.60
2018-01-08T13:09:30.707Z,65.40
2018-01-08T13:10:40.856Z,65.60
2018-01-08T13:11:42.090Z,65.60
2018-01-08T13:12:43.165Z,65.60
2018-01-08T13:13:44.971Z,66.10
2018-01-08T13:14:46.040Z,66.40
2018-01-08T13:15:47.625Z,65.70
2018-01-08T13:16:57.808Z,65.70
2018-01-08T13:18:16.474Z,65.30
2018-01-08T13:19:23.070Z,64.90
2018-01-08T13:20:26.081Z,64.80
2018-01-08T13:21:28.157Z,64.90
2018-01-08T13:22:32.113Z,64.90